sensor_id;sensor_type;location;lat;lon;timestamp;temperature;humidity
56478;DHT22;42382;53.210;5.772;2023-06-04T00:01:34;12.40;75.80
56478;DHT22;42382;53.210;5.772;2023-06-04T00:04:00;12.30;75.90
56478;DHT22;42382;53.210;5.772;2023-06-04T00:06:25;12.30;75.80
56478;DHT22;42382;53.210;5.772;2023-06-04T00:08:51;12.30;76.20
56478;DHT22;42382;53.210;5.772;2023-06-04T00:11:16;12.20;76.00
56478;DHT22;42382;53.210;5.772;2023-06-04T00:13:42;12.10;76.00
56478;DHT22;42382;53.210;5.772;2023-06-04T00:16:07;12.10;76.20
56478;DHT22;42382;53.210;5.772;2023-06-04T00:18:33;12.10;76.50
56478;DHT22;42382;53.210;5.772;2023-06-04T00:20:59;12.10;76.80
56478;DHT22;42382;53.210;5.772;2023-06-04T00:23:24;12.10;77.10
56478;DHT22;42382;53.210;5.772;2023-06-04T00:25:50;12.10;77.10
56478;DHT22;42382;53.210;5.772;2023-06-04T00:28:16;12.10;77.20
56478;DHT22;42382;53.210;5.772;2023-06-04T00:30:41;12.10;77.10
56478;DHT22;42382;53.210;5.772;2023-06-04T00:33:07;12.10;77.10
56478;DHT22;42382;53.210;5.772;2023-06-04T00:35:32;12.10;77.20
56478;DHT22;42382;53.210;5.772;2023-06-04T00:37:58;12.10;77.10
56478;DHT22;42382;53.210;5.772;2023-06-04T00:40:24;12.10;77.10
56478;DHT22;42382;53.210;5.772;2023-06-04T00:42:49;12.10;77.20
56478;DHT22;42382;53.210;5.772;2023-06-04T00:45:15;12.00;77.10
56478;DHT22;42382;53.210;5.772;2023-06-04T00:47:44;12.00;77.20
56478;DHT22;42382;53.210;5.772;2023-06-04T00:50:10;12.00;77.50
56478;DHT22;42382;53.210;5.772;2023-06-04T00:52:36;12.00;77.70
56478;DHT22;42382;53.210;5.772;2023-06-04T00:55:02;11.90;77.60
56478;DHT22;42382;53.210;5.772;2023-06-04T00:57:28;11.90;77.60
56478;DHT22;42382;53.210;5.772;2023-06-04T00:59:54;11.90;77.70
56478;DHT22;42382;53.210;5.772;2023-06-04T01:02:23;11.80;77.80
56478;DHT22;42382;53.210;5.772;2023-06-04T01:07:52;11.80;78.10
56478;DHT22;42382;53.210;5.772;2023-06-04T01:10:18;11.80;78.00
56478;DHT22;42382;53.210;5.772;2023-06-04T01:12:44;11.80;78.20
56478;DHT22;42382;53.210;5.772;2023-06-04T01:15:11;11.80;78.10
56478;DHT22;42382;53.210;5.772;2023-06-04T01:17:39;11.80;78.00
56478;DHT22;42382;53.210;5.772;2023-06-04T01:25:34;11.80;78.20
56478;DHT22;42382;53.210;5.772;2023-06-04T01:28:01;11.80;78.20
56478;DHT22;42382;53.210;5.772;2023-06-04T01:30:31;11.80;78.30
56478;DHT22;42382;53.210;5.772;2023-06-04T01:33:00;11.80;78.10
56478;DHT22;42382;53.210;5.772;2023-06-04T01:35:27;11.80;78.10
56478;DHT22;42382;53.210;5.772;2023-06-04T01:37:53;11.80;78.50
56478;DHT22;42382;53.210;5.772;2023-06-04T01:40:20;11.70;78.50
56478;DHT22;42382;53.210;5.772;2023-06-04T01:42:46;11.80;78.60
56478;DHT22;42382;53.210;5.772;2023-06-04T01:45:12;11.70;78.60
56478;DHT22;42382;53.210;5.772;2023-06-04T01:47:37;11.70;78.70
56478;DHT22;42382;53.210;5.772;2023-06-04T01:50:05;11.70;78.70
56478;DHT22;42382;53.210;5.772;2023-06-04T01:52:35;11.70;78.90
56478;DHT22;42382;53.210;5.772;2023-06-04T01:55:02;11.70;78.90
56478;DHT22;42382;53.210;5.772;2023-06-04T01:57:30;11.60;79.00
56478;DHT22;42382;53.210;5.772;2023-06-04T01:59:55;11.60;79.10
56478;DHT22;42382;53.210;5.772;2023-06-04T02:02:21;11.70;79.10
56478;DHT22;42382;53.210;5.772;2023-06-04T02:04:47;11.60;79.20
56478;DHT22;42382;53.210;5.772;2023-06-04T02:07:13;11.60;79.30
56478;DHT22;42382;53.210;5.772;2023-06-04T02:09:47;11.60;79.40
56478;DHT22;42382;53.210;5.772;2023-06-04T02:12:13;11.60;79.60
56478;DHT22;42382;53.210;5.772;2023-06-04T02:14:38;11.60;79.60
56478;DHT22;42382;53.210;5.772;2023-06-04T02:17:05;11.60;79.70
56478;DHT22;42382;53.210;5.772;2023-06-04T02:19:41;11.60;79.70
56478;DHT22;42382;53.210;5.772;2023-06-04T02:22:13;11.50;79.60
56478;DHT22;42382;53.210;5.772;2023-06-04T02:24:39;11.50;79.80
56478;DHT22;42382;53.210;5.772;2023-06-04T02:27:08;11.50;79.80
56478;DHT22;42382;53.210;5.772;2023-06-04T02:29:34;11.50;79.80
56478;DHT22;42382;53.210;5.772;2023-06-04T02:31:59;11.40;79.80
56478;DHT22;42382;53.210;5.772;2023-06-04T02:34:25;11.40;79.80
56478;DHT22;42382;53.210;5.772;2023-06-04T02:36:51;11.40;79.90
56478;DHT22;42382;53.210;5.772;2023-06-04T02:39:18;11.40;79.90
56478;DHT22;42382;53.210;5.772;2023-06-04T02:41:44;11.40;80.10
56478;DHT22;42382;53.210;5.772;2023-06-04T02:44:10;11.30;80.10
56478;DHT22;42382;53.210;5.772;2023-06-04T02:46:36;11.40;80.30
56478;DHT22;42382;53.210;5.772;2023-06-04T02:49:03;11.30;80.30
56478;DHT22;42382;53.210;5.772;2023-06-04T02:51:28;11.30;80.20
56478;DHT22;42382;53.210;5.772;2023-06-04T02:53:54;11.30;80.30
56478;DHT22;42382;53.210;5.772;2023-06-04T02:56:20;11.30;80.20
56478;DHT22;42382;53.210;5.772;2023-06-04T02:58:53;11.30;80.40
56478;DHT22;42382;53.210;5.772;2023-06-04T03:01:24;11.30;80.60
56478;DHT22;42382;53.210;5.772;2023-06-04T03:03:50;11.20;80.70
56478;DHT22;42382;53.210;5.772;2023-06-04T03:06:17;11.20;80.70
56478;DHT22;42382;53.210;5.772;2023-06-04T03:08:43;11.20;80.80
56478;DHT22;42382;53.210;5.772;2023-06-04T03:11:09;11.20;80.90
56478;DHT22;42382;53.210;5.772;2023-06-04T03:13:35;11.20;80.90
56478;DHT22;42382;53.210;5.772;2023-06-04T03:16:02;11.10;80.90
56478;DHT22;42382;53.210;5.772;2023-06-04T03:18:28;11.10;80.90
56478;DHT22;42382;53.210;5.772;2023-06-04T03:20:54;11.10;80.90
56478;DHT22;42382;53.210;5.772;2023-06-04T03:23:21;11.10;81.00
56478;DHT22;42382;53.210;5.772;2023-06-04T03:25:47;11.10;81.10
56478;DHT22;42382;53.210;5.772;2023-06-04T03:28:13;11.10;81.00
56478;DHT22;42382;53.210;5.772;2023-06-04T03:30:40;11.10;81.00
56478;DHT22;42382;53.210;5.772;2023-06-04T03:33:05;11.00;81.00
56478;DHT22;42382;53.210;5.772;2023-06-04T03:35:31;11.00;81.30
56478;DHT22;42382;53.210;5.772;2023-06-04T03:37:56;11.00;81.40
56478;DHT22;42382;53.210;5.772;2023-06-04T03:40:22;11.00;81.50
56478;DHT22;42382;53.210;5.772;2023-06-04T03:42:47;11.00;81.50
56478;DHT22;42382;53.210;5.772;2023-06-04T03:45:13;11.00;81.50
56478;DHT22;42382;53.210;5.772;2023-06-04T03:47:39;11.00;81.40
56478;DHT22;42382;53.210;5.772;2023-06-04T03:50:06;11.00;81.40
56478;DHT22;42382;53.210;5.772;2023-06-04T03:52:31;11.00;81.60
56478;DHT22;42382;53.210;5.772;2023-06-04T03:54:58;11.00;81.50
56478;DHT22;42382;53.210;5.772;2023-06-04T03:57:24;11.00;81.60
56478;DHT22;42382;53.210;5.772;2023-06-04T03:59:49;11.00;81.70
56478;DHT22;42382;53.210;5.772;2023-06-04T04:02:15;11.00;81.80
56478;DHT22;42382;53.210;5.772;2023-06-04T04:04:43;11.00;81.80
56478;DHT22;42382;53.210;5.772;2023-06-04T04:07:09;11.10;81.80
56478;DHT22;42382;53.210;5.772;2023-06-04T04:09:36;11.00;81.80
56478;DHT22;42382;53.210;5.772;2023-06-04T04:12:01;11.00;82.00
56478;DHT22;42382;53.210;5.772;2023-06-04T04:14:27;11.10;82.10
56478;DHT22;42382;53.210;5.772;2023-06-04T04:16:53;11.00;82.20
56478;DHT22;42382;53.210;5.772;2023-06-04T04:19:18;11.10;82.20
56478;DHT22;42382;53.210;5.772;2023-06-04T04:21:44;11.10;82.20
56478;DHT22;42382;53.210;5.772;2023-06-04T04:24:30;11.10;82.20
56478;DHT22;42382;53.210;5.772;2023-06-04T04:26:59;11.10;82.40
56478;DHT22;42382;53.210;5.772;2023-06-04T04:29:25;11.20;82.40
56478;DHT22;42382;53.210;5.772;2023-06-04T04:31:53;11.30;82.40
56478;DHT22;42382;53.210;5.772;2023-06-04T04:34:25;11.30;82.40
56478;DHT22;42382;53.210;5.772;2023-06-04T04:36:51;11.30;82.50
56478;DHT22;42382;53.210;5.772;2023-06-04T04:39:24;11.30;82.40
56478;DHT22;42382;53.210;5.772;2023-06-04T04:41:50;11.40;82.80
56478;DHT22;42382;53.210;5.772;2023-06-04T04:44:16;11.30;82.80
56478;DHT22;42382;53.210;5.772;2023-06-04T04:46:42;11.40;83.00
56478;DHT22;42382;53.210;5.772;2023-06-04T04:49:07;11.40;82.80
56478;DHT22;42382;53.210;5.772;2023-06-04T04:51:33;11.40;83.00
56478;DHT22;42382;53.210;5.772;2023-06-04T04:53:59;11.40;83.00
56478;DHT22;42382;53.210;5.772;2023-06-04T04:56:34;11.40;83.10
56478;DHT22;42382;53.210;5.772;2023-06-04T04:59:00;11.50;83.40
56478;DHT22;42382;53.210;5.772;2023-06-04T05:01:26;11.50;83.40
56478;DHT22;42382;53.210;5.772;2023-06-04T05:03:52;11.70;83.60
56478;DHT22;42382;53.210;5.772;2023-06-04T05:06:19;11.60;83.60
56478;DHT22;42382;53.210;5.772;2023-06-04T05:08:45;11.70;83.60
56478;DHT22;42382;53.210;5.772;2023-06-04T05:11:11;11.80;83.80
56478;DHT22;42382;53.210;5.772;2023-06-04T05:13:36;11.80;83.90
56478;DHT22;42382;53.210;5.772;2023-06-04T05:16:02;11.90;83.80
56478;DHT22;42382;53.210;5.772;2023-06-04T05:18:37;12.00;83.90
56478;DHT22;42382;53.210;5.772;2023-06-04T05:21:06;12.10;84.00
56478;DHT22;42382;53.210;5.772;2023-06-04T05:23:32;12.20;83.80
56478;DHT22;42382;53.210;5.772;2023-06-04T05:26:02;12.30;84.00
56478;DHT22;42382;53.210;5.772;2023-06-04T05:28:28;12.50;83.90
56478;DHT22;42382;53.210;5.772;2023-06-04T05:30:54;12.50;83.90
56478;DHT22;42382;53.210;5.772;2023-06-04T05:33:28;12.60;83.90
56478;DHT22;42382;53.210;5.772;2023-06-04T05:35:55;12.70;83.90
56478;DHT22;42382;53.210;5.772;2023-06-04T05:38:26;12.70;83.60
56478;DHT22;42382;53.210;5.772;2023-06-04T05:40:55;12.80;83.60
56478;DHT22;42382;53.210;5.772;2023-06-04T05:43:21;12.90;83.50
56478;DHT22;42382;53.210;5.772;2023-06-04T05:45:47;12.90;83.40
56478;DHT22;42382;53.210;5.772;2023-06-04T05:48:13;13.00;83.30
56478;DHT22;42382;53.210;5.772;2023-06-04T05:50:39;13.10;83.10
56478;DHT22;42382;53.210;5.772;2023-06-04T05:53:05;13.20;83.10
56478;DHT22;42382;53.210;5.772;2023-06-04T05:55:30;13.20;83.10
56478;DHT22;42382;53.210;5.772;2023-06-04T05:57:56;13.20;82.90
56478;DHT22;42382;53.210;5.772;2023-06-04T06:00:22;13.20;82.70
56478;DHT22;42382;53.210;5.772;2023-06-04T06:02:49;13.20;82.70
56478;DHT22;42382;53.210;5.772;2023-06-04T06:05:15;13.20;82.80
56478;DHT22;42382;53.210;5.772;2023-06-04T06:07:41;13.30;82.80
56478;DHT22;42382;53.210;5.772;2023-06-04T06:10:07;13.30;82.60
56478;DHT22;42382;53.210;5.772;2023-06-04T06:12:33;13.30;82.70
56478;DHT22;42382;53.210;5.772;2023-06-04T06:14:59;13.40;82.50
56478;DHT22;42382;53.210;5.772;2023-06-04T06:17:25;13.30;82.30
56478;DHT22;42382;53.210;5.772;2023-06-04T06:19:52;13.40;82.20
56478;DHT22;42382;53.210;5.772;2023-06-04T06:22:17;13.40;81.90
56478;DHT22;42382;53.210;5.772;2023-06-04T06:24:43;13.50;82.10
56478;DHT22;42382;53.210;5.772;2023-06-04T06:27:10;13.50;81.80
56478;DHT22;42382;53.210;5.772;2023-06-04T06:29:35;13.60;82.00
56478;DHT22;42382;53.210;5.772;2023-06-04T06:32:02;13.60;81.60
56478;DHT22;42382;53.210;5.772;2023-06-04T06:34:28;13.70;81.10
56478;DHT22;42382;53.210;5.772;2023-06-04T06:36:53;13.80;81.20
56478;DHT22;42382;53.210;5.772;2023-06-04T06:39:19;13.80;80.80
56478;DHT22;42382;53.210;5.772;2023-06-04T06:41:45;13.80;80.80
56478;DHT22;42382;53.210;5.772;2023-06-04T06:44:11;13.80;80.90
56478;DHT22;42382;53.210;5.772;2023-06-04T06:46:36;13.90;80.70
56478;DHT22;42382;53.210;5.772;2023-06-04T06:49:02;14.00;80.30
56478;DHT22;42382;53.210;5.772;2023-06-04T06:51:28;14.10;80.40
56478;DHT22;42382;53.210;5.772;2023-06-04T06:53:53;14.60;80.40
56478;DHT22;42382;53.210;5.772;2023-06-04T06:56:19;15.40;78.70
56478;DHT22;42382;53.210;5.772;2023-06-04T06:58:45;16.10;76.70
56478;DHT22;42382;53.210;5.772;2023-06-04T07:01:11;16.80;75.50
56478;DHT22;42382;53.210;5.772;2023-06-04T07:03:37;17.50;74.00
56478;DHT22;42382;53.210;5.772;2023-06-04T07:06:04;18.10;71.60
56478;DHT22;42382;53.210;5.772;2023-06-04T07:08:29;18.90;70.40
56478;DHT22;42382;53.210;5.772;2023-06-04T07:10:55;19.50;69.20
56478;DHT22;42382;53.210;5.772;2023-06-04T07:13:21;19.90;66.30
56478;DHT22;42382;53.210;5.772;2023-06-04T07:15:46;20.10;64.00
56478;DHT22;42382;53.210;5.772;2023-06-04T07:18:12;20.20;62.20
56478;DHT22;42382;53.210;5.772;2023-06-04T07:20:37;20.40;62.30
56478;DHT22;42382;53.210;5.772;2023-06-04T07:23:03;20.70;60.70
56478;DHT22;42382;53.210;5.772;2023-06-04T07:25:29;20.90;59.40
56478;DHT22;42382;53.210;5.772;2023-06-04T07:27:54;21.00;59.30
56478;DHT22;42382;53.210;5.772;2023-06-04T07:30:24;21.40;57.80
56478;DHT22;42382;53.210;5.772;2023-06-04T07:32:50;21.40;56.00
56478;DHT22;42382;53.210;5.772;2023-06-04T07:35:16;21.40;56.30
56478;DHT22;42382;53.210;5.772;2023-06-04T07:37:42;21.60;55.60
56478;DHT22;42382;53.210;5.772;2023-06-04T07:40:11;21.70;55.20
56478;DHT22;42382;53.210;5.772;2023-06-04T07:42:36;21.90;54.50
56478;DHT22;42382;53.210;5.772;2023-06-04T07:45:03;22.30;53.60
56478;DHT22;42382;53.210;5.772;2023-06-04T07:47:28;22.50;52.40
56478;DHT22;42382;53.210;5.772;2023-06-04T07:49:54;22.40;52.00
56478;DHT22;42382;53.210;5.772;2023-06-04T07:52:19;22.90;52.10
56478;DHT22;42382;53.210;5.772;2023-06-04T07:54:45;23.20;51.30
56478;DHT22;42382;53.210;5.772;2023-06-04T07:57:11;23.50;49.70
56478;DHT22;42382;53.210;5.772;2023-06-04T07:59:36;23.90;48.00
56478;DHT22;42382;53.210;5.772;2023-06-04T08:02:02;24.00;47.20
56478;DHT22;42382;53.210;5.772;2023-06-04T08:04:27;24.10;46.80
56478;DHT22;42382;53.210;5.772;2023-06-04T08:06:53;24.00;47.30
56478;DHT22;42382;53.210;5.772;2023-06-04T08:09:19;23.90;48.30
56478;DHT22;42382;53.210;5.772;2023-06-04T08:11:45;24.00;46.90
56478;DHT22;42382;53.210;5.772;2023-06-04T08:14:11;23.90;45.30
56478;DHT22;42382;53.210;5.772;2023-06-04T08:16:38;23.80;45.80
56478;DHT22;42382;53.210;5.772;2023-06-04T08:19:04;23.80;46.20
56478;DHT22;42382;53.210;5.772;2023-06-04T08:21:30;23.80;46.80
56478;DHT22;42382;53.210;5.772;2023-06-04T08:23:55;23.90;46.60
56478;DHT22;42382;53.210;5.772;2023-06-04T08:26:21;24.00;46.90
56478;DHT22;42382;53.210;5.772;2023-06-04T08:28:50;24.20;46.00
56478;DHT22;42382;53.210;5.772;2023-06-04T08:31:16;24.20;45.90
56478;DHT22;42382;53.210;5.772;2023-06-04T08:33:44;24.30;46.10
56478;DHT22;42382;53.210;5.772;2023-06-04T08:36:13;24.30;45.10
56478;DHT22;42382;53.210;5.772;2023-06-04T08:38:39;24.30;44.90
56478;DHT22;42382;53.210;5.772;2023-06-04T08:41:15;24.30;44.80
56478;DHT22;42382;53.210;5.772;2023-06-04T08:43:41;24.10;44.30
56478;DHT22;42382;53.210;5.772;2023-06-04T08:46:09;23.80;44.80
56478;DHT22;42382;53.210;5.772;2023-06-04T08:48:35;23.50;45.40
56478;DHT22;42382;53.210;5.772;2023-06-04T08:51:05;23.40;45.10
56478;DHT22;42382;53.210;5.772;2023-06-04T08:53:31;23.40;45.30
56478;DHT22;42382;53.210;5.772;2023-06-04T08:55:57;23.50;44.60
56478;DHT22;42382;53.210;5.772;2023-06-04T08:58:23;23.40;45.00
56478;DHT22;42382;53.210;5.772;2023-06-04T09:00:50;23.70;44.90
56478;DHT22;42382;53.210;5.772;2023-06-04T09:03:16;23.70;43.80
56478;DHT22;42382;53.210;5.772;2023-06-04T09:05:44;23.60;43.80
56478;DHT22;42382;53.210;5.772;2023-06-04T09:08:14;23.60;44.50
56478;DHT22;42382;53.210;5.772;2023-06-04T09:10:44;23.70;44.30
56478;DHT22;42382;53.210;5.772;2023-06-04T09:13:13;23.90;43.30
56478;DHT22;42382;53.210;5.772;2023-06-04T09:15:40;23.90;43.20
56478;DHT22;42382;53.210;5.772;2023-06-04T09:18:06;24.20;43.10
56478;DHT22;42382;53.210;5.772;2023-06-04T09:20:31;24.30;43.10
56478;DHT22;42382;53.210;5.772;2023-06-04T09:22:58;24.40;43.00
56478;DHT22;42382;53.210;5.772;2023-06-04T09:25:25;24.70;42.80
56478;DHT22;42382;53.210;5.772;2023-06-04T09:27:52;24.90;41.60
56478;DHT22;42382;53.210;5.772;2023-06-04T09:30:18;24.70;41.90
56478;DHT22;42382;53.210;5.772;2023-06-04T09:32:44;24.80;41.80
56478;DHT22;42382;53.210;5.772;2023-06-04T09:35:18;24.50;41.10
56478;DHT22;42382;53.210;5.772;2023-06-04T09:37:54;24.20;42.20
56478;DHT22;42382;53.210;5.772;2023-06-04T09:40:21;24.20;42.10
56478;DHT22;42382;53.210;5.772;2023-06-04T09:42:48;24.30;42.60
56478;DHT22;42382;53.210;5.772;2023-06-04T09:45:30;24.30;41.90
56478;DHT22;42382;53.210;5.772;2023-06-04T09:47:57;24.30;42.90
56478;DHT22;42382;53.210;5.772;2023-06-04T09:50:27;24.50;42.60
56478;DHT22;42382;53.210;5.772;2023-06-04T09:52:54;24.60;42.00
56478;DHT22;42382;53.210;5.772;2023-06-04T09:55:19;24.50;42.10
56478;DHT22;42382;53.210;5.772;2023-06-04T09:57:48;24.60;40.50
56478;DHT22;42382;53.210;5.772;2023-06-04T10:00:17;24.30;41.50
56478;DHT22;42382;53.210;5.772;2023-06-04T10:02:44;23.90;41.90
56478;DHT22;42382;53.210;5.772;2023-06-04T10:05:11;23.80;43.40
56478;DHT22;42382;53.210;5.772;2023-06-04T10:07:43;23.60;44.20
56478;DHT22;42382;53.210;5.772;2023-06-04T10:10:15;23.60;44.30
56478;DHT22;42382;53.210;5.772;2023-06-04T10:12:42;23.80;43.60
56478;DHT22;42382;53.210;5.772;2023-06-04T10:15:12;23.70;43.00
56478;DHT22;42382;53.210;5.772;2023-06-04T10:17:39;23.60;43.00
56478;DHT22;42382;53.210;5.772;2023-06-04T10:20:07;23.30;44.00
56478;DHT22;42382;53.210;5.772;2023-06-04T10:22:35;23.20;44.90
56478;DHT22;42382;53.210;5.772;2023-06-04T10:25:00;23.40;44.70
56478;DHT22;42382;53.210;5.772;2023-06-04T10:27:30;23.60;44.10
56478;DHT22;42382;53.210;5.772;2023-06-04T10:29:57;23.70;43.60
56478;DHT22;42382;53.210;5.772;2023-06-04T10:32:22;23.70;42.60
56478;DHT22;42382;53.210;5.772;2023-06-04T10:34:51;23.70;43.60
56478;DHT22;42382;53.210;5.772;2023-06-04T10:37:22;23.80;43.10
56478;DHT22;42382;53.210;5.772;2023-06-04T10:39:52;23.70;43.00
56478;DHT22;42382;53.210;5.772;2023-06-04T10:42:18;23.70;42.90
56478;DHT22;42382;53.210;5.772;2023-06-04T10:44:46;23.90;43.10
56478;DHT22;42382;53.210;5.772;2023-06-04T10:47:23;24.00;43.30
56478;DHT22;42382;53.210;5.772;2023-06-04T10:49:53;24.10;41.40
56478;DHT22;42382;53.210;5.772;2023-06-04T10:52:19;24.00;41.70
56478;DHT22;42382;53.210;5.772;2023-06-04T10:54:46;23.90;42.20
56478;DHT22;42382;53.210;5.772;2023-06-04T10:57:17;24.00;42.00
56478;DHT22;42382;53.210;5.772;2023-06-04T10:59:59;23.90;42.40
56478;DHT22;42382;53.210;5.772;2023-06-04T11:02:25;23.70;42.90
56478;DHT22;42382;53.210;5.772;2023-06-04T11:05:05;23.80;43.10
56478;DHT22;42382;53.210;5.772;2023-06-04T11:07:43;23.80;42.90
56478;DHT22;42382;53.210;5.772;2023-06-04T11:10:13;23.80;43.20
56478;DHT22;42382;53.210;5.772;2023-06-04T11:12:49;23.90;43.50
56478;DHT22;42382;53.210;5.772;2023-06-04T11:15:18;24.00;42.70
56478;DHT22;42382;53.210;5.772;2023-06-04T11:17:51;24.20;43.10
56478;DHT22;42382;53.210;5.772;2023-06-04T11:20:21;24.20;42.80
56478;DHT22;42382;53.210;5.772;2023-06-04T11:22:53;24.30;42.00
56478;DHT22;42382;53.210;5.772;2023-06-04T11:25:19;24.20;42.10
56478;DHT22;42382;53.210;5.772;2023-06-04T11:27:45;24.00;42.90
56478;DHT22;42382;53.210;5.772;2023-06-04T11:30:11;24.10;42.50
56478;DHT22;42382;53.210;5.772;2023-06-04T11:32:37;24.00;43.00
56478;DHT22;42382;53.210;5.772;2023-06-04T11:35:07;23.90;43.00
56478;DHT22;42382;53.210;5.772;2023-06-04T11:37:33;23.90;43.50
56478;DHT22;42382;53.210;5.772;2023-06-04T11:39:59;23.90;43.90
56478;DHT22;42382;53.210;5.772;2023-06-04T11:42:31;23.90;44.00
56478;DHT22;42382;53.210;5.772;2023-06-04T11:44:57;23.90;43.60
56478;DHT22;42382;53.210;5.772;2023-06-04T11:47:23;23.60;43.50
56478;DHT22;42382;53.210;5.772;2023-06-04T11:49:55;23.60;43.90
56478;DHT22;42382;53.210;5.772;2023-06-04T11:52:22;23.40;44.20
56478;DHT22;42382;53.210;5.772;2023-06-04T11:54:48;23.30;44.60
56478;DHT22;42382;53.210;5.772;2023-06-04T11:57:14;23.00;44.70
56478;DHT22;42382;53.210;5.772;2023-06-04T11:59:40;22.70;45.60
56478;DHT22;42382;53.210;5.772;2023-06-04T12:02:07;22.40;46.30
56478;DHT22;42382;53.210;5.772;2023-06-04T12:04:32;22.50;46.30
56478;DHT22;42382;53.210;5.772;2023-06-04T12:07:01;22.60;46.00
56478;DHT22;42382;53.210;5.772;2023-06-04T12:09:32;22.60;46.30
56478;DHT22;42382;53.210;5.772;2023-06-04T12:12:01;22.70;45.90
56478;DHT22;42382;53.210;5.772;2023-06-04T12:14:27;22.80;45.30
56478;DHT22;42382;53.210;5.772;2023-06-04T12:19:26;22.20;46.40
56478;DHT22;42382;53.210;5.772;2023-06-04T12:22:02;22.10;47.40
56478;DHT22;42382;53.210;5.772;2023-06-04T12:24:29;21.90;47.60
56478;DHT22;42382;53.210;5.772;2023-06-04T12:27:05;21.80;48.20
56478;DHT22;42382;53.210;5.772;2023-06-04T12:29:32;21.90;48.00
56478;DHT22;42382;53.210;5.772;2023-06-04T12:32:05;22.00;47.90
56478;DHT22;42382;53.210;5.772;2023-06-04T12:34:36;22.00;47.00
56478;DHT22;42382;53.210;5.772;2023-06-04T12:37:02;21.80;47.70
56478;DHT22;42382;53.210;5.772;2023-06-04T12:39:35;21.60;47.40
56478;DHT22;42382;53.210;5.772;2023-06-04T12:42:06;21.30;48.20
56478;DHT22;42382;53.210;5.772;2023-06-04T12:44:32;21.40;47.60
56478;DHT22;42382;53.210;5.772;2023-06-04T12:46:58;21.20;48.20
56478;DHT22;42382;53.210;5.772;2023-06-04T12:49:23;21.30;48.50
56478;DHT22;42382;53.210;5.772;2023-06-04T12:51:49;21.40;47.90
56478;DHT22;42382;53.210;5.772;2023-06-04T12:54:15;21.30;47.10
56478;DHT22;42382;53.210;5.772;2023-06-04T12:56:41;21.10;47.90
56478;DHT22;42382;53.210;5.772;2023-06-04T12:59:07;21.00;48.10
56478;DHT22;42382;53.210;5.772;2023-06-04T13:01:32;20.90;48.60
56478;DHT22;42382;53.210;5.772;2023-06-04T13:03:58;20.90;48.60
56478;DHT22;42382;53.210;5.772;2023-06-04T13:06:24;20.90;48.70
56478;DHT22;42382;53.210;5.772;2023-06-04T13:08:49;20.90;48.80
56478;DHT22;42382;53.210;5.772;2023-06-04T13:11:15;21.00;48.10
56478;DHT22;42382;53.210;5.772;2023-06-04T13:13:40;20.90;48.40
56478;DHT22;42382;53.210;5.772;2023-06-04T13:16:07;21.00;48.20
56478;DHT22;42382;53.210;5.772;2023-06-04T13:18:33;21.00;48.00
56478;DHT22;42382;53.210;5.772;2023-06-04T13:21:01;21.10;47.50
56478;DHT22;42382;53.210;5.772;2023-06-04T13:23:27;21.10;47.80
56478;DHT22;42382;53.210;5.772;2023-06-04T13:25:53;21.30;47.80
56478;DHT22;42382;53.210;5.772;2023-06-04T13:28:18;21.40;47.20
56478;DHT22;42382;53.210;5.772;2023-06-04T13:30:44;21.40;47.10
56478;DHT22;42382;53.210;5.772;2023-06-04T13:33:10;21.10;47.10
56478;DHT22;42382;53.210;5.772;2023-06-04T13:35:36;21.10;47.90
56478;DHT22;42382;53.210;5.772;2023-06-04T13:38:05;21.00;47.40
56478;DHT22;42382;53.210;5.772;2023-06-04T13:40:33;21.00;47.90
56478;DHT22;42382;53.210;5.772;2023-06-04T13:42:59;20.90;47.50
56478;DHT22;42382;53.210;5.772;2023-06-04T13:45:25;20.80;47.30
56478;DHT22;42382;53.210;5.772;2023-06-04T13:47:50;20.70;48.50
56478;DHT22;42382;53.210;5.772;2023-06-04T13:50:16;20.70;48.30
56478;DHT22;42382;53.210;5.772;2023-06-04T13:52:42;20.70;47.90
56478;DHT22;42382;53.210;5.772;2023-06-04T13:55:08;20.60;48.70
56478;DHT22;42382;53.210;5.772;2023-06-04T13:57:33;20.60;49.60
56478;DHT22;42382;53.210;5.772;2023-06-04T13:59:59;20.60;49.70
56478;DHT22;42382;53.210;5.772;2023-06-04T14:02:25;20.70;49.60
56478;DHT22;42382;53.210;5.772;2023-06-04T14:04:52;20.60;49.50
56478;DHT22;42382;53.210;5.772;2023-06-04T14:07:19;20.50;49.40
56478;DHT22;42382;53.210;5.772;2023-06-04T14:09:45;20.60;50.40
56478;DHT22;42382;53.210;5.772;2023-06-04T14:12:11;20.60;50.80
56478;DHT22;42382;53.210;5.772;2023-06-04T14:14:37;20.50;50.30
56478;DHT22;42382;53.210;5.772;2023-06-04T14:17:03;20.30;50.90
56478;DHT22;42382;53.210;5.772;2023-06-04T14:19:29;20.20;51.30
56478;DHT22;42382;53.210;5.772;2023-06-04T14:21:55;20.30;51.60
56478;DHT22;42382;53.210;5.772;2023-06-04T14:24:21;20.30;51.30
56478;DHT22;42382;53.210;5.772;2023-06-04T14:26:47;20.20;51.10
56478;DHT22;42382;53.210;5.772;2023-06-04T14:29:13;20.30;51.10
56478;DHT22;42382;53.210;5.772;2023-06-04T14:31:39;20.30;51.60
56478;DHT22;42382;53.210;5.772;2023-06-04T14:34:04;20.30;51.80
56478;DHT22;42382;53.210;5.772;2023-06-04T14:36:32;20.30;51.60
56478;DHT22;42382;53.210;5.772;2023-06-04T14:38:58;20.40;51.50
56478;DHT22;42382;53.210;5.772;2023-06-04T14:41:23;20.40;51.50
56478;DHT22;42382;53.210;5.772;2023-06-04T14:43:49;20.40;51.10
56478;DHT22;42382;53.210;5.772;2023-06-04T14:46:15;20.40;51.50
56478;DHT22;42382;53.210;5.772;2023-06-04T14:48:41;20.40;51.00
56478;DHT22;42382;53.210;5.772;2023-06-04T14:51:07;20.40;51.50
56478;DHT22;42382;53.210;5.772;2023-06-04T14:53:32;20.40;50.70
56478;DHT22;42382;53.210;5.772;2023-06-04T14:55:58;20.20;51.60
56478;DHT22;42382;53.210;5.772;2023-06-04T14:58:23;20.10;52.40
56478;DHT22;42382;53.210;5.772;2023-06-04T15:00:49;20.10;51.90
56478;DHT22;42382;53.210;5.772;2023-06-04T15:03:15;20.10;51.40
56478;DHT22;42382;53.210;5.772;2023-06-04T15:05:40;20.00;52.30
56478;DHT22;42382;53.210;5.772;2023-06-04T15:08:06;20.00;52.90
56478;DHT22;42382;53.210;5.772;2023-06-04T15:10:31;20.00;52.80
56478;DHT22;42382;53.210;5.772;2023-06-04T15:12:59;20.10;52.30
56478;DHT22;42382;53.210;5.772;2023-06-04T15:15:28;20.10;52.70
56478;DHT22;42382;53.210;5.772;2023-06-04T15:17:53;20.30;52.80
56478;DHT22;42382;53.210;5.772;2023-06-04T15:20:19;20.40;52.40
56478;DHT22;42382;53.210;5.772;2023-06-04T15:22:45;20.30;51.80
56478;DHT22;42382;53.210;5.772;2023-06-04T15:25:10;20.30;51.30
56478;DHT22;42382;53.210;5.772;2023-06-04T15:27:36;20.10;52.00
56478;DHT22;42382;53.210;5.772;2023-06-04T15:30:04;20.10;51.60
56478;DHT22;42382;53.210;5.772;2023-06-04T15:32:29;19.90;52.00
56478;DHT22;42382;53.210;5.772;2023-06-04T15:34:55;19.90;51.70
56478;DHT22;42382;53.210;5.772;2023-06-04T15:37:21;19.90;51.70
56478;DHT22;42382;53.210;5.772;2023-06-04T15:39:46;19.90;52.60